Time;durP1;ratioP1;P1;durP2;ratioP2;P2;SDS_P1;SDS_P2;PMS_P1;PMS_P2;Temp;Humidity;BMP_temperature;BMP_pressure;BME280_temperature;BME280_humidity;BME280_pressure;Samples;Min_cycle;Max_cycle;Signal;HPM_P1;HPM_P2
2022/12/19 00:03:58;;;;;;;1.07;1.07;;;;;;;2.95;77.36;101774.47;5111098;27;1193038;-81
2022/12/19 00:06:26;;;;;;;0.20;0.20;;;;;;;3.08;76.57;101779.19;5141580;28;20035;-82
2022/12/19 00:08:53;;;;;;;0.20;0.20;;;;;;;3.10;76.36;101757.41;5140881;28;20451;-82
2022/12/19 00:11:22;;;;;;;0.22;0.22;;;;;;;3.13;76.32;101763.63;5132171;28;20034;-82
2022/12/19 00:13:48;;;;;;;0.10;0.10;;;;;;;3.13;76.72;101766.25;5109534;28;20034;-82
2022/12/19 00:16:17;;;;;;;0.30;0.30;;;;;;;3.15;76.80;101775.00;5110627;28;20275;-82
2022/12/19 00:18:45;;;;;;;0.20;0.20;;;;;;;3.10;76.79;101771.38;5108859;28;20024;-82
2022/12/19 00:21:16;;;;;;;0.85;0.85;;;;;;;3.20;76.37;101772.50;5104710;28;20028;-82
2022/12/19 00:23:43;;;;;;;0.47;0.47;;;;;;;3.17;76.67;101761.97;5108790;28;20047;-82
2022/12/19 00:26:23;;;;;;;0.10;0.10;;;;;;;3.26;76.80;101761.31;5109794;28;20110;-82
2022/12/19 00:28:52;;;;;;;0.20;0.20;;;;;;;3.27;76.48;101753.47;5108884;28;20032;-82
2022/12/19 00:31:19;;;;;;;0.30;0.30;;;;;;;3.30;76.48;101750.06;5107535;28;20115;-82
2022/12/19 00:33:47;;;;;;;0.22;0.22;;;;;;;3.29;76.78;101738.69;5111252;28;20043;-82
2022/12/19 00:36:17;;;;;;;0.20;0.20;;;;;;;3.30;76.77;101734.34;5109784;28;20028;-82
2022/12/19 00:38:44;;;;;;;0.10;0.10;;;;;;;3.35;76.96;101725.75;5104140;28;20040;-82
2022/12/19 00:41:20;;;;;;;0.10;0.10;;;;;;;3.38;77.45;101722.31;5110614;28;20027;-82
2022/12/19 00:44:04;;;;;;;0.30;0.30;;;;;;;3.42;77.46;101707.56;5106652;28;20089;-82
2022/12/19 00:46:32;;;;;;;0.93;0.93;;;;;;;3.44;77.57;101714.59;5110587;28;20089;-82
2022/12/19 00:48:59;;;;;;;0.20;0.20;;;;;;;3.46;77.91;101712.00;5109411;28;20490;-82
2022/12/19 00:51:28;;;;;;;0.15;0.15;;;;;;;3.48;77.73;101708.59;5105627;28;20051;-82
2022/12/19 00:53:55;;;;;;;0.57;0.57;;;;;;;3.58;77.83;101700.91;5110043;28;20340;-82
2022/12/19 00:56:25;;;;;;;0.10;0.10;;;;;;;3.62;77.92;101695.78;5110492;28;20084;-82
2022/12/19 00:58:52;;;;;;;3.22;1.48;;;;;;;3.64;77.72;101693.19;5108267;28;20351;-82
2022/12/19 01:01:21;;;;;;;0.17;0.17;;;;;;;3.62;77.69;101702.78;5112092;28;20499;-82
2022/12/19 01:03:48;;;;;;;3.70;1.75;;;;;;;3.71;78.26;101687.25;5107603;28;20032;-82
2022/12/19 01:06:14;;;;;;;0.10;0.10;;;;;;;3.72;77.64;101683.78;5107740;28;20062;-82
2022/12/19 01:08:40;;;;;;;1.95;1.20;;;;;;;3.81;77.92;101683.09;5106396;28;20028;-82
2022/12/19 01:11:07;;;;;;;0.10;0.10;;;;;;;3.86;77.61;101678.81;5107803;28;20020;-82
2022/12/19 01:13:35;;;;;;;0.50;0.50;;;;;;;3.84;78.27;101678.78;5106074;28;20331;-83
2022/12/19 01:16:04;;;;;;;0.10;0.10;;;;;;;3.95;78.07;101686.00;5093741;28;20464;-82
2022/12/19 01:18:30;;;;;;;0.38;0.38;;;;;;;3.96;78.03;101677.28;5089007;28;20028;-83
2022/12/19 01:21:02;;;;;;;0.10;0.10;;;;;;;3.96;77.91;101672.03;5095002;28;20028;-82
2022/12/19 01:23:29;;;;;;;0.20;0.20;;;;;;;4.00;77.90;101680.00;5105329;28;20020;-82
2022/12/19 01:25:56;;;;;;;0.10;0.10;;;;;;;4.05;78.30;101674.88;5114271;28;20032;-82
2022/12/19 01:28:23;;;;;;;0.77;0.77;;;;;;;4.11;78.27;101667.13;5104019;28;20034;-82
2022/12/19 01:30:50;;;;;;;0.30;0.30;;;;;;;4.10;78.41;101665.34;5101793;28;20028;-82
2022/12/19 01:33:17;;;;;;;0.20;0.20;;;;;;;4.14;78.50;101667.16;5100639;28;20087;-82
2022/12/19 01:35:46;;;;;;;0.30;0.30;;;;;;;4.16;78.66;101659.31;5097135;28;20057;-82
2022/12/19 01:38:15;;;;;;;11.68;1.35;;;;;;;4.20;78.09;101662.03;5104437;28;20028;-81
2022/12/19 01:40:48;;;;;;;0.47;0.47;;;;;;;4.27;78.05;101643.78;5102182;28;20034;-81
2022/12/19 01:43:14;;;;;;;0.32;0.32;;;;;;;4.23;78.09;101649.84;5107628;28;20097;-81
2022/12/19 01:45:41;;;;;;;0.30;0.30;;;;;;;4.27;77.71;101643.78;5106135;28;20069;-81
2022/12/19 01:48:17;;;;;;;0.28;0.28;;;;;;;4.31;77.93;101641.28;5105689;28;20028;-82
2022/12/19 01:53:25;;;;;;;0.17;0.17;;;;;;;4.26;78.34;101639.41;5128056;27;20400;-82
2022/12/19 01:55:52;;;;;;;1.27;1.17;;;;;;;4.33;77.89;101641.28;5120935;28;20038;-81
2022/12/19 01:58:19;;;;;;;0.30;0.30;;;;;;;4.30;77.98;101642.13;5120810;28;20035;-81
2022/12/19 02:00:45;;;;;;;0.10;0.10;;;;;;;4.39;77.80;101630.91;5125088;28;20042;-81
2022/12/19 02:03:19;;;;;;;0.52;0.52;;;;;;;4.39;78.03;101630.91;5125747;28;20058;-82
2022/12/19 02:05:45;;;;;;;0.82;0.82;;;;;;;4.36;78.33;101631.75;5127057;28;20034;-82
2022/12/19 02:08:11;;;;;;;0.10;0.10;;;;;;;4.38;77.91;101624.75;5125947;28;20063;-84
2022/12/19 02:10:38;;;;;;;0.20;0.20;;;;;;;4.43;77.83;101623.97;5123422;28;20028;-84
2022/12/19 02:13:05;;;;;;;0.32;0.32;;;;;;;4.50;78.06;101615.38;5120768;28;20027;-85
2022/12/19 02:15:43;;;;;;;2.28;1.75;;;;;;;4.53;77.95;101610.16;5109438;28;20024;-85
2022/12/19 02:21:13;;;;;;;0.50;0.50;;;;;;;4.62;78.08;101597.22;5116549;27;1173636;-83
2022/12/19 02:26:56;;;;;;;0.10;0.10;;;;;;;4.72;77.98;101582.47;5074295;28;20139;-83
2022/12/19 02:32:37;;;;;;;0.13;0.13;;;;;;;4.77;78.06;101567.69;5078565;27;20892;-82
2022/12/19 02:37:58;;;;;;;0.50;0.50;;;;;;;4.77;78.27;101559.81;5132194;27;1216578;-85
2022/12/19 02:40:31;;;;;;;0.68;0.68;;;;;;;4.74;78.76;101549.25;5140168;27;20094;-85
2022/12/19 02:43:00;;;;;;;0.10;0.10;;;;;;;4.82;78.42;101558.13;5144667;27;20022;-84
2022/12/19 02:45:33;;;;;;;0.17;0.17;;;;;;;4.81;78.46;101556.38;5126258;27;20028;-85
2022/12/19 02:48:00;;;;;;;0.20;0.20;;;;;;;4.86;78.55;101553.81;5117674;28;20035;-85
2022/12/19 02:50:37;;;;;;;0.20;0.20;;;;;;;4.95;78.75;101542.56;5127886;27;20031;-86
2022/12/19 02:53:03;;;;;;;0.10;0.10;;;;;;;4.97;78.71;101548.69;5106778;28;20157;-85
2022/12/19 02:55:36;;;;;;;0.70;0.70;;;;;;;5.01;78.72;101547.91;5118392;28;20520;-86
2022/12/19 03:00:53;;;;;;;1.80;1.70;;;;;;;5.11;78.57;101535.75;5121078;27;1176237;-83
2022/12/19 03:03:38;;;;;;;0.10;0.10;;;;;;;5.18;78.45;101525.38;5116810;28;20285;-83
2022/12/19 03:06:22;;;;;;;0.30;0.30;;;;;;;5.22;78.29;101535.91;5120065;28;20031;-82
2022/12/19 03:09:01;;;;;;;0.15;0.15;;;;;;;5.23;78.36;101522.78;5122806;27;20031;-83
2022/12/19 03:11:33;;;;;;;0.10;0.10;;;;;;;5.22;78.35;101533.28;5113877;27;20015;-82
2022/12/19 03:14:05;;;;;;;0.10;0.10;;;;;;;5.26;78.29;101529.81;5124967;27;20027;-82
2022/12/19 03:16:35;;;;;;;0.70;0.70;;;;;;;5.25;78.50;101525.47;5117115;27;20518;-83
2022/12/19 03:19:02;;;;;;;0.20;0.20;;;;;;;5.27;78.71;101523.72;5111209;28;20028;-83
2022/12/19 03:21:34;;;;;;;0.77;0.77;;;;;;;5.32;78.63;101516.78;5123842;28;20023;-83
2022/12/19 03:24:02;;;;;;;3.08;1.17;;;;;;;5.33;78.49;101522.06;5114064;27;20060;-83
2022/12/19 03:26:33;;;;;;;0.20;0.20;;;;;;;5.35;78.64;101522.06;5124192;27;20398;-83
2022/12/19 03:31:39;;;;;;;0.65;0.65;;;;;;;5.37;78.76;101509.84;5101594;27;1185141;-83
2022/12/19 03:34:27;;;;;;;1.42;1.08;;;;;;;5.42;78.66;101505.53;5129365;28;20035;-82
2022/12/19 03:36:57;;;;;;;0.13;0.13;;;;;;;5.44;78.55;101503.78;5120636;28;20035;-83
2022/12/19 03:39:25;;;;;;;0.10;0.10;;;;;;;5.45;78.65;101507.31;5119320;28;20051;-83
2022/12/19 03:44:42;;;;;;;12.82;1.27;;;;;;;5.52;78.80;101506.53;5105153;28;20036;-82
2022/12/19 03:47:33;;;;;;;0.25;0.25;;;;;;;5.56;78.77;101504.78;5118351;27;20128;-84
2022/12/19 03:49:59;;;;;;;0.20;0.20;;;;;;;5.51;79.13;101503.00;5108003;28;20099;-83
2022/12/19 03:55:16;;;;;;;0.55;0.55;;;;;;;5.63;78.73;101517.13;5071205;28;20894;-83
2022/12/19 03:57:55;;;;;;;0.30;0.30;;;;;;;5.63;79.19;101511.88;5050013;28;20100;-83
2022/12/19 04:00:23;;;;;;;0.20;0.20;;;;;;;5.65;79.50;101503.16;5070130;28;20029;-83
2022/12/19 04:02:53;;;;;;;0.10;0.10;;;;;;;5.69;79.46;101497.94;5067978;28;20036;-83
2022/12/19 04:05:23;;;;;;;0.10;0.10;;;;;;;5.77;79.64;101494.53;5058604;28;20076;-83
2022/12/19 04:07:52;;;;;;;0.17;0.17;;;;;;;5.81;79.51;101480.53;5051051;28;20017;-83
2022/12/19 04:10:22;;;;;;;0.13;0.13;;;;;;;5.83;79.52;101475.28;5066872;28;20043;-83
2022/12/19 04:12:54;;;;;;;0.22;0.22;;;;;;;5.94;79.20;101486.81;5051424;28;20396;-83
2022/12/19 04:15:46;;;;;;;0.63;0.63;;;;;;;6.01;79.12;101487.75;5055188;28;20140;-83
2022/12/19 04:18:14;;;;;;;0.20;0.20;;;;;;;6.04;79.18;101492.16;5071497;28;20392;-83
2022/12/19 04:20:47;;;;;;;0.10;0.10;;;;;;;6.02;79.41;101484.28;5071048;28;20033;-82
2022/12/19 04:25:57;;;;;;;0.10;0.10;;;;;;;6.11;79.62;101478.22;5026667;28;20696;-83
2022/12/19 04:28:33;;;;;;;0.10;0.10;;;;;;;6.21;79.41;101481.81;5013373;28;20120;-82
2022/12/19 04:31:01;;;;;;;0.57;0.57;;;;;;;6.19;79.72;101478.28;5013862;28;20367;-83
2022/12/19 04:33:27;;;;;;;0.10;0.10;;;;;;;6.25;79.38;101483.59;4993042;28;20048;-83
2022/12/19 04:35:54;;;;;;;0.20;0.20;;;;;;;6.30;79.32;101474.84;4994066;28;20509;-83
2022/12/19 04:38:20;;;;;;;0.10;0.10;;;;;;;6.26;79.24;101478.31;5004317;28;20030;-83
2022/12/19 04:40:46;;;;;;;1.02;0.60;;;;;;;6.26;79.92;101480.09;5005501;28;20024;-83
2022/12/19 04:43:12;;;;;;;0.40;0.40;;;;;;;6.34;79.39;101481.00;5021464;28;20086;-84
2022/12/19 04:45:40;;;;;;;0.63;0.63;;;;;;;6.38;79.56;101471.38;5005200;28;20041;-84
2022/12/19 04:48:06;;;;;;;0.20;0.20;;;;;;;6.34;79.99;101475.75;5005864;28;20026;-83
2022/12/19 04:50:33;;;;;;;0.20;0.20;;;;;;;6.47;79.95;101476.75;5002166;28;20518;-83
2022/12/19 04:53:00;;;;;;;0.10;0.10;;;;;;;6.43;79.88;101470.56;5055562;28;20036;-83
2022/12/19 04:55:26;;;;;;;0.68;0.68;;;;;;;6.48;80.14;101468.84;5001282;28;20042;-83
2022/12/19 04:57:52;;;;;;;0.10;0.10;;;;;;;6.44;80.26;101472.34;4984513;28;20037;-83
2022/12/19 05:00:18;;;;;;;0.17;0.17;;;;;;;6.58;79.73;101459.25;4985024;28;20030;-83
2022/12/19 05:02:44;;;;;;;0.17;0.17;;;;;;;6.53;80.14;101460.09;4993240;28;20490;-83
2022/12/19 05:05:10;;;;;;;3.47;1.75;;;;;;;6.61;79.93;101464.53;5034108;28;20234;-83
2022/12/19 05:07:36;;;;;;;0.80;0.40;;;;;;;6.62;79.89;101460.16;5005899;28;20323;-84
2022/12/19 05:10:03;;;;;;;0.13;0.13;;;;;;;6.67;79.60;101453.16;5025096;28;20034;-83
2022/12/19 05:12:30;;;;;;;0.20;0.20;;;;;;;6.71;79.75;101472.50;4984451;28;20041;-83
2022/12/19 05:14:56;;;;;;;0.10;0.10;;;;;;;6.78;79.72;101462.00;4980590;28;20097;-83
2022/12/19 05:17:22;;;;;;;0.73;0.73;;;;;;;6.80;79.83;101460.28;4999920;28;20500;-83
2022/12/19 05:19:48;;;;;;;0.10;0.10;;;;;;;6.85;79.40;101456.78;5058436;28;20020;-84
2022/12/19 05:22:14;;;;;;;0.80;0.80;;;;;;;6.85;79.94;101451.50;5023274;28;20035;-84
2022/12/19 05:24:40;;;;;;;0.17;0.17;;;;;;;6.88;79.76;101451.50;5013642;28;20039;-83
2022/12/19 05:27:07;;;;;;;0.10;0.10;;;;;;;6.90;80.38;101448.03;5013156;28;20030;-84
2022/12/19 05:29:33;;;;;;;0.10;0.10;;;;;;;6.97;79.97;101456.84;4984231;28;20137;-84
2022/12/19 05:31:59;;;;;;;0.15;0.15;;;;;;;7.01;80.47;101437.53;5011093;28;20027;-84
2022/12/19 05:34:25;;;;;;;0.10;0.10;;;;;;;7.09;80.06;101456.91;5007713;28;20030;-84
2022/12/19 05:36:51;;;;;;;0.10;0.10;;;;;;;7.13;79.86;101440.22;5000278;28;20022;-84
2022/12/19 05:39:18;;;;;;;0.45;0.45;;;;;;;7.18;79.96;101453.41;4983822;28;20435;-84
2022/12/19 05:41:44;;;;;;;0.10;0.10;;;;;;;7.25;80.44;101443.75;4970552;28;20035;-84
2022/12/19 05:44:10;;;;;;;1.10;1.00;;;;;;;7.23;80.20;101459.59;4974553;28;20027;-83
2022/12/19 05:46:36;;;;;;;0.22;0.22;;;;;;;7.25;80.27;101446.41;4976714;28;20041;-84
2022/12/19 05:49:02;;;;;;;0.30;0.30;;;;;;;7.28;80.90;101457.84;4982069;28;20039;-83
2022/12/19 05:51:28;;;;;;;0.98;0.95;;;;;;;7.33;80.78;101444.69;4972885;28;20575;-85
2022/12/19 05:53:54;;;;;;;0.63;0.63;;;;;;;7.44;80.27;101464.03;4989409;28;20027;-84
2022/12/19 05:56:22;;;;;;;0.45;0.45;;;;;;;7.45;80.33;101449.09;4992308;28;20039;-84
2022/12/19 05:58:48;;;;;;;0.10;0.10;;;;;;;7.52;80.80;101461.44;4971944;28;20038;-84
2022/12/19 06:01:18;;;;;;;2.38;2.17;;;;;;;7.63;80.44;101431.53;4981905;28;20033;-84
2022/12/19 06:03:45;;;;;;;0.10;0.10;;;;;;;7.66;80.63;101465.84;4983509;28;20045;-85
2022/12/19 06:06:14;;;;;;;0.10;0.10;;;;;;;7.74;80.33;101451.81;5003568;28;20047;-84
2022/12/19 06:08:40;;;;;;;0.10;0.10;;;;;;;7.75;80.23;101456.22;5006736;28;20178;-84
2022/12/19 06:11:08;;;;;;;0.50;0.43;;;;;;;7.83;80.67;101457.97;4977919;28;20038;-84
2022/12/19 06:13:35;;;;;;;0.77;0.77;;;;;;;7.86;80.32;101445.69;4973135;28;20023;-84
2022/12/19 06:16:04;;;;;;;0.47;0.47;;;;;;;7.93;80.34;101457.09;4975122;28;20046;-84
2022/12/19 06:18:31;;;;;;;0.10;0.10;;;;;;;7.90;80.78;101451.81;4990638;28;20033;-84
2022/12/19 06:21:00;;;;;;;0.10;0.10;;;;;;;7.94;79.79;101462.38;4974441;28;20114;-85
2022/12/19 06:23:28;;;;;;;0.20;0.20;;;;;;;7.95;80.41;101455.34;4976054;28;20130;-85
2022/12/19 06:25:57;;;;;;;0.20;0.20;;;;;;;7.93;80.39;101444.78;4974268;28;20094;-84
2022/12/19 06:28:25;;;;;;;0.43;0.43;;;;;;;8.03;80.29;101453.59;4974201;28;20164;-84
2022/12/19 06:30:51;;;;;;;1.35;1.35;;;;;;;8.00;80.29;101435.13;4972486;28;20035;-84
2022/12/19 06:33:17;;;;;;;0.40;0.40;;;;;;;8.06;80.21;101443.03;4976803;28;20035;-84
2022/12/19 06:35:44;;;;;;;0.20;0.20;;;;;;;8.04;80.47;101438.66;4990206;28;20035;-84
2022/12/19 06:38:10;;;;;;;0.10;0.10;;;;;;;8.05;80.48;101456.22;4993707;28;20048;-85
2022/12/19 06:43:31;;;;;;;0.20;0.20;;;;;;;8.19;80.57;101443.03;4990202;28;20088;-84
2022/12/19 06:45:58;;;;;;;0.17;0.17;;;;;;;8.16;80.62;101458.88;4983324;28;20042;-85
2022/12/19 06:48:25;;;;;;;0.10;0.10;;;;;;;8.12;80.60;101439.50;4984904;28;20042;-85
2022/12/19 06:50:51;;;;;;;0.10;0.10;;;;;;;8.19;79.97;101448.31;4977988;28;20374;-85
2022/12/19 06:53:20;;;;;;;0.20;0.20;;;;;;;8.26;80.10;101458.88;4973457;28;20043;-84
2022/12/19 06:55:47;;;;;;;0.15;0.15;;;;;;;8.09;80.90;101453.59;4982430;28;20046;-85
2022/12/19 06:58:13;;;;;;;0.10;0.10;;;;;;;8.19;80.19;101449.19;4975038;28;20059;-85
2022/12/19 07:00:40;;;;;;;0.10;0.10;;;;;;;8.24;80.05;101451.84;4976859;28;20027;-85
2022/12/19 07:03:11;;;;;;;0.98;0.95;;;;;;;8.23;80.59;101450.94;4976614;28;20490;-84
2022/12/19 07:05:38;;;;;;;0.20;0.20;;;;;;;8.24;79.81;101446.56;4971246;28;20544;-81
2022/12/19 07:08:06;;;;;;;0.57;0.57;;;;;;;8.24;80.19;101457.13;4975587;28;20458;-82
2022/12/19 07:10:32;;;;;;;0.52;0.52;;;;;;;8.28;80.55;101458.88;4964307;28;20117;-85
2022/12/19 07:12:59;;;;;;;0.10;0.10;;;;;;;8.31;80.15;101448.31;4968759;28;20034;-83
2022/12/19 07:15:25;;;;;;;0.40;0.40;;;;;;;8.29;80.20;101450.06;4977032;28;20046;-83
2022/12/19 07:17:51;;;;;;;0.55;0.55;;;;;;;8.34;79.91;101458.84;4992170;28;20035;-83
2022/12/19 07:20:19;;;;;;;0.10;0.10;;;;;;;8.34;80.31;101458.84;4993421;28;20031;-83
2022/12/19 07:22:46;;;;;;;0.10;0.10;;;;;;;8.40;80.16;101468.56;4986538;28;20179;-83
2022/12/19 07:25:13;;;;;;;0.20;0.20;;;;;;;8.42;80.02;101462.38;4983955;28;20023;-83
2022/12/19 07:27:39;;;;;;;0.63;0.63;;;;;;;8.53;79.75;101469.44;4992856;28;20090;-84
2022/12/19 07:30:06;;;;;;;0.10;0.10;;;;;;;8.51;80.30;101465.91;4987188;28;20023;-83
2022/12/19 07:32:32;;;;;;;0.20;0.20;;;;;;;8.51;80.06;101469.44;4985789;28;20107;-83
2022/12/19 07:35:04;;;;;;;0.63;0.63;;;;;;;8.58;79.95;101475.59;4987475;28;20078;-83
2022/12/19 07:37:30;;;;;;;0.93;0.22;;;;;;;8.60;79.63;101475.56;4988203;28;20031;-85
2022/12/19 07:39:56;;;;;;;4.95;1.42;;;;;;;8.53;79.65;101482.66;4977343;28;20033;-85
2022/12/19 07:42:22;;;;;;;0.30;0.30;;;;;;;8.60;79.70;101476.47;4987756;28;20053;-85
2022/12/19 07:44:48;;;;;;;0.10;0.10;;;;;;;8.62;79.82;101481.75;4989361;28;20030;-85
2022/12/19 07:47:14;;;;;;;0.17;0.17;;;;;;;8.61;79.74;101483.53;4977046;28;20034;-84
2022/12/19 07:49:40;;;;;;;0.10;0.10;;;;;;;8.65;79.46;101479.97;4974011;28;20055;-85
2022/12/19 07:52:07;;;;;;;1.05;1.05;;;;;;;8.69;79.92;101481.72;4976802;28;20043;-84
2022/12/19 07:54:33;;;;;;;0.10;0.10;;;;;;;8.66;79.95;101488.78;4989734;28;20029;-85
2022/12/19 07:57:00;;;;;;;0.10;0.10;;;;;;;8.65;79.64;101495.84;4985635;28;20042;-84
2022/12/19 07:59:27;;;;;;;0.10;0.10;;;;;;;8.67;79.43;101496.72;4984330;28;20038;-84
2022/12/19 08:01:53;;;;;;;0.10;0.10;;;;;;;8.67;79.40;101493.19;4973637;28;20018;-84
2022/12/19 08:04:19;;;;;;;0.20;0.20;;;;;;;8.69;79.32;101510.78;4973196;28;20046;-85
2022/12/19 08:06:45;;;;;;;0.10;0.10;;;;;;;8.68;79.80;101485.25;4970528;28;20027;-84
2022/12/19 08:09:12;;;;;;;0.17;0.17;;;;;;;8.69;79.29;101508.16;4966435;28;20033;-85
2022/12/19 08:11:38;;;;;;;0.30;0.30;;;;;;;8.70;78.80;101498.47;4973731;28;20039;-85
2022/12/19 08:14:04;;;;;;;0.10;0.10;;;;;;;8.62;79.49;101503.75;4963867;28;20033;-85
2022/12/19 08:16:30;;;;;;;0.10;0.10;;;;;;;8.65;79.36;101506.41;4972533;28;20029;-85
2022/12/19 08:18:56;;;;;;;0.45;0.45;;;;;;;8.63;79.19;101508.16;4968941;28;20035;-85
2022/12/19 08:21:23;;;;;;;1.55;1.45;;;;;;;8.60;79.00;101507.28;4962500;28;20134;-83
2022/12/19 08:23:50;;;;;;;0.20;0.20;;;;;;;8.64;78.81;101504.63;4956068;28;20032;-85
2022/12/19 08:26:23;;;;;;;0.13;0.13;;;;;;;8.64;79.31;101509.91;4972153;28;20510;-85
2022/12/19 08:28:51;;;;;;;0.10;0.10;;;;;;;8.62;79.19;101510.81;4974511;28;20096;-85
2022/12/19 08:31:18;;;;;;;0.50;0.50;;;;;;;8.61;79.52;101515.22;5012601;28;20118;-85
2022/12/19 08:33:46;;;;;;;0.10;0.10;;;;;;;8.67;79.40;101511.69;4958912;28;20035;-86
2022/12/19 08:36:15;;;;;;;1.05;1.05;;;;;;;8.68;79.62;101519.59;4959126;28;20031;-85
2022/12/19 08:38:41;;;;;;;0.10;0.10;;;;;;;8.62;79.86;101529.31;4951477;28;20036;-84
2022/12/19 08:41:08;;;;;;;0.20;0.20;;;;;;;8.66;79.93;101518.75;4963154;28;20404;-84
2022/12/19 08:43:34;;;;;;;0.20;0.20;;;;;;;8.76;79.57;101521.34;4962010;28;20035;-85
2022/12/19 08:46:00;;;;;;;0.30;0.30;;;;;;;8.72;79.44;101523.13;4960756;28;20038;-85
2022/12/19 08:48:27;;;;;;;0.10;0.10;;;;;;;8.75;79.46;101515.19;4969086;28;20039;-85
2022/12/19 08:50:56;;;;;;;0.38;0.38;;;;;;;8.78;79.61;101511.66;4960769;28;20089;-85
2022/12/19 08:53:24;;;;;;;1.48;1.38;;;;;;;8.74;79.70;101516.94;4951436;28;20128;-85
2022/12/19 08:55:55;;;;;;;0.10;0.10;;;;;;;8.82;79.16;101518.69;4960498;28;20026;-85
2022/12/19 08:58:22;;;;;;;0.10;0.10;;;;;;;8.77;79.71;101523.13;4969630;28;20026;-85
2022/12/19 09:00:48;;;;;;;1.42;1.40;;;;;;;8.72;79.18;101518.72;4969462;28;20031;-84
2022/12/19 09:03:14;;;;;;;0.30;0.30;;;;;;;8.80;79.49;101520.44;4977288;28;20035;-84
2022/12/19 09:05:41;;;;;;;0.10;0.10;;;;;;;8.79;79.25;101508.16;4968557;28;20035;-85
2022/12/19 09:08:07;;;;;;;0.20;0.20;;;;;;;8.78;79.24;101509.03;4984306;28;20034;-86
2022/12/19 09:10:36;;;;;;;0.40;0.40;;;;;;;8.84;79.27;101512.53;4985983;28;20088;-86
2022/12/19 09:13:04;;;;;;;0.10;0.10;;;;;;;8.81;79.62;101517.84;4992478;28;20026;-87
2022/12/19 09:15:30;;;;;;;0.22;0.22;;;;;;;8.85;79.38;101518.72;4990988;28;20042;-87
2022/12/19 09:17:56;;;;;;;0.10;0.10;;;;;;;8.87;79.56;101520.47;4980706;28;20023;-87
2022/12/19 09:20:22;;;;;;;0.10;0.10;;;;;;;8.93;79.18;101524.84;4966223;28;20045;-87
2022/12/19 09:22:48;;;;;;;0.85;0.85;;;;;;;8.89;79.27;101534.53;4974219;28;20035;-85
2022/12/19 09:25:14;;;;;;;0.20;0.20;;;;;;;8.89;79.09;101531.88;4977114;28;20038;-85
2022/12/19 09:27:40;;;;;;;0.73;0.73;;;;;;;8.83;79.21;101533.69;4975591;28;20097;-85
2022/12/19 09:30:07;;;;;;;0.20;0.20;;;;;;;8.91;79.25;101534.56;4972132;28;20035;-86
2022/12/19 09:32:33;;;;;;;0.20;0.20;;;;;;;8.94;79.27;101531.88;4971492;28;20035;-85
2022/12/19 09:34:59;;;;;;;0.43;0.43;;;;;;;8.93;79.31;101526.63;4974732;28;20030;-86
2022/12/19 09:37:25;;;;;;;0.65;0.65;;;;;;;8.90;79.00;101533.66;4975321;28;20034;-85
2022/12/19 09:39:51;;;;;;;0.20;0.20;;;;;;;8.93;79.24;101527.47;4976529;28;20081;-85
2022/12/19 09:45:26;;;;;;;3.00;2.80;;;;;;;8.97;79.45;101534.53;5149647;27;20793;-81
2022/12/19 09:47:57;;;;;;;0.15;0.15;;;;;;;8.99;79.36;101535.41;5125570;28;20030;-83
2022/12/19 09:53:16;;;;;;;0.10;0.10;;;;;;;9.12;79.61;101538.00;5099110;27;1183054;-84
2022/12/19 09:55:44;;;;;;;0.20;0.20;;;;;;;9.10;79.90;101531.84;5111332;28;20048;-84
2022/12/19 09:58:33;;;;;;;0.10;0.10;;;;;;;9.23;79.60;101529.19;5110790;28;20038;-86
2022/12/19 10:01:06;;;;;;;0.20;0.20;;;;;;;9.23;79.99;101533.56;5110087;28;20107;-85
2022/12/19 10:03:42;;;;;;;0.17;0.17;;;;;;;9.29;79.72;101532.69;5102153;28;20062;-85
2022/12/19 10:06:18;;;;;;;2.55;0.88;;;;;;;9.27;79.83;101535.34;5100489;28;20073;-84
2022/12/19 10:08:45;;;;;;;0.13;0.13;;;;;;;9.29;79.72;101530.91;5100887;28;20035;-85
2022/12/19 10:14:21;;;;;;;0.43;0.43;;;;;;;9.48;79.39;101537.03;5113096;27;1212741;-83
2022/12/19 10:19:56;;;;;;;0.43;0.43;;;;;;;9.48;79.13;101531.72;5096862;27;1189618;-84
2022/12/19 10:25:36;;;;;;;0.32;0.32;;;;;;;9.50;78.99;101539.66;5076437;28;20422;-82
2022/12/19 10:28:43;;;;;;;0.10;0.10;;;;;;;9.47;78.58;101529.06;5063154;28;20446;-83
2022/12/19 10:34:18;;;;;;;0.20;0.20;;;;;;;9.55;78.62;101537.88;5089276;27;1895749;-82
2022/12/19 10:36:49;;;;;;;0.10;0.10;;;;;;;9.50;78.52;101534.38;5137177;28;20042;-82
2022/12/19 10:42:18;;;;;;;0.10;0.10;;;;;;;9.49;78.56;101537.88;5127784;27;1197089;-82
2022/12/19 10:44:46;;;;;;;0.20;0.20;;;;;;;9.54;78.34;101531.69;5131843;28;20218;-82
2022/12/19 10:47:15;;;;;;;0.20;0.20;;;;;;;9.45;78.26;101520.28;5139078;28;20432;-83
2022/12/19 10:49:41;;;;;;;10.88;1.95;;;;;;;9.54;78.17;101515.84;5124395;28;20058;-82
2022/12/19 10:52:12;;;;;;;0.20;0.20;;;;;;;9.51;78.31;101530.84;5121583;28;20059;-83
2022/12/19 10:57:21;;;;;;;0.10;0.10;;;;;;;9.63;78.24;101514.91;5091142;27;1700442;-83
2022/12/19 11:05:24;;;;;;;0.20;0.20;;;;;;;9.74;78.21;101496.28;5128952;27;1260003;-82
2022/12/19 11:08:14;;;;;;;0.10;0.10;;;;;;;9.77;78.06;101495.41;5141795;28;20423;-82
2022/12/19 11:10:44;;;;;;;0.38;0.38;;;;;;;9.78;77.85;101502.44;5142518;28;20038;-82
2022/12/19 11:16:10;;;;;;;0.17;0.17;;;;;;;9.81;77.99;101502.44;5109750;27;1256814;-84
2022/12/19 11:21:30;;;;;;;4.07;1.67;;;;;;;9.74;78.43;101501.59;5110391;27;20398;-81
2022/12/19 11:29:54;;;;;;;0.10;0.10;;;;;;;9.90;79.04;101518.25;5095405;27;20135;-82
2022/12/19 11:32:31;;;;;;;0.17;0.17;;;;;;;9.92;79.09;101516.50;5085399;28;20036;-82
2022/12/19 11:35:07;;;;;;;0.10;0.10;;;;;;;9.97;79.31;101504.09;5080589;28;20029;-82
2022/12/19 11:37:40;;;;;;;0.20;0.20;;;;;;;9.95;79.52;101505.00;5080615;28;20037;-82
2022/12/19 11:40:17;;;;;;;0.20;0.20;;;;;;;10.07;79.03;101509.31;5080830;28;20043;-82
2022/12/19 11:43:02;;;;;;;0.10;0.10;;;;;;;10.07;79.30;101504.03;5081020;28;20390;-82
2022/12/19 11:46:02;;;;;;;0.30;0.30;;;;;;;10.18;79.07;101492.47;5078463;28;20036;-81
2022/12/19 11:48:40;;;;;;;0.17;0.17;;;;;;;10.19;78.53;101482.75;5080273;28;20080;-81
2022/12/19 11:51:41;;;;;;;0.25;0.25;;;;;;;10.18;78.53;101488.94;5088394;28;20040;-81
2022/12/19 11:54:54;;;;;;;;;;;;;;;;;;;;;
2022/12/19 11:57:44;;;;;;;0.10;0.10;;;;;;;10.35;77.92;101492.34;5085751;28;20107;-81
2022/12/19 12:00:21;;;;;;;0.37;0.37;;;;;;;10.32;78.21;101484.41;5074603;28;20025;-81
2022/12/19 12:03:33;;;;;;;0.10;0.10;;;;;;;10.35;78.11;101479.09;5093249;28;20028;-81
2022/12/19 12:06:12;;;;;;;0.10;0.10;;;;;;;10.25;77.72;101474.75;5083125;28;20044;-81
2022/12/19 12:11:46;;;;;;;0.10;0.10;;;;;;;10.29;77.63;101470.31;5103268;27;20145;-85
2022/12/19 12:14:18;;;;;;;0.10;0.10;;;;;;;10.26;77.61;101460.63;5060768;28;20067;-85
2022/12/19 12:20:09;;;;;;;0.20;0.20;;;;;;;10.20;77.47;101458.91;5014357;27;3840857;-82
2022/12/19 12:23:15;;;;;;;0.20;0.20;;;;;;;10.22;77.46;101443.00;5132049;28;20050;-84
2022/12/19 12:28:49;;;;;;;0.10;0.10;;;;;;;10.25;77.45;101440.31;5106159;27;20391;-82
2022/12/19 12:37:25;;;;;;;1.37;0.50;;;;;;;10.33;76.75;101437.59;5111277;27;1178776;-88
2022/12/19 12:43:12;;;;;;;0.13;0.13;;;;;;;10.44;76.53;101424.28;5119109;27;20350;-83
2022/12/19 12:45:40;;;;;;;0.10;0.10;;;;;;;10.42;76.24;101426.97;5116400;28;20046;-82
2022/12/19 12:50:59;;;;;;;0.20;0.20;;;;;;;10.43;75.65;101433.13;5113163;27;1260466;-82
2022/12/19 12:53:32;;;;;;;0.30;0.30;;;;;;;10.51;75.28;101418.03;5137875;28;20050;-82
2022/12/19 12:56:00;;;;;;;0.10;0.10;;;;;;;10.50;75.29;101421.56;5127943;27;20105;-83
2022/12/19 13:01:34;;;;;;;0.20;0.20;;;;;;;10.53;75.04;101429.50;5172866;27;20134;-83
2022/12/19 13:07:01;;;;;;;0.45;0.45;;;;;;;10.42;75.28;101412.81;5104645;27;1377314;-82
2022/12/19 13:09:30;;;;;;;0.75;0.75;;;;;;;10.53;75.57;101418.91;5117341;27;20060;-82
2022/12/19 13:23:22;;;;;;;0.10;0.10;;;;;;;10.50;74.27;101398.63;5179299;27;20368;-83
2022/12/19 13:25:54;;;;;;;0.10;0.10;;;;;;;10.54;74.46;101394.16;5168621;27;20033;-83
2022/12/19 13:36:54;;;;;;;0.20;0.20;;;;;;;10.58;73.84;101357.88;5106039;27;20458;-82
2022/12/19 13:45:01;;;;;;;0.10;0.10;;;;;;;10.61;74.30;101358.75;5131319;28;20036;-86
2022/12/19 13:47:37;;;;;;;0.10;0.10;;;;;;;10.63;74.14;101366.66;5124031;27;20023;-86
2022/12/19 13:50:16;;;;;;;0.10;0.10;;;;;;;10.61;73.45;101363.16;5118726;27;20399;-88
2022/12/19 13:52:48;;;;;;;0.20;0.20;;;;;;;10.60;74.03;101382.63;5125612;27;20475;-87